Boyes, Montana
Current Conditions -  °F | °C
As of 4:53 PM on Thursday 27 Nov 2014 (Local Time) from KGCC Reporting Station
Clear Clear  
Wind Chill: 37°   Ceiling: Unl
Heat Index: 44°   Visibility: 10mi
Dew Point: 30°   Wind: 15mph
Humidity: 58%   Direction: 230°SW
Pressure: 29.91"   Gusts: NA
Location:  45.27°N, 105.03°W
Report Text: KGCC 272353Z AUTO 23013KT 10SM CLR 07/M01 A2991 RMK AO2 SLP145 T00671011 10089 20067 53004 TSNO
Loading
Personal Weather Stations






























Interactive Weather Map New forecast layout! Learn more

10-Day Weather Forecast

Advertisements
Track Severe Weather on mobile